createdAt,value
2019-02-06T00:00:59.959Z,17.13
2019-02-06T00:03:28.840Z,18.03
2019-02-06T00:05:58.081Z,16.93
2019-02-06T00:08:26.958Z,17.23
2019-02-06T00:10:55.846Z,17.43
2019-02-06T00:13:24.716Z,18.30
2019-02-06T00:15:54.541Z,17.70
2019-02-06T00:18:23.677Z,17.33
2019-02-06T00:20:52.865Z,18.87
2019-02-06T00:23:22.035Z,17.87
2019-02-06T00:25:50.819Z,18.17
2019-02-06T00:28:19.690Z,16.63
2019-02-06T00:30:48.905Z,16.67
2019-02-06T00:33:17.698Z,15.33
2019-02-06T00:35:46.578Z,14.17
2019-02-06T00:38:15.758Z,15.43
2019-02-06T00:40:44.711Z,14.77
2019-02-06T00:43:13.593Z,15.90
2019-02-06T00:45:42.915Z,14.10
2019-02-06T00:48:11.730Z,14.87
2019-02-06T00:50:40.549Z,14.53
2019-02-06T00:53:09.550Z,16.10
2019-02-06T00:55:38.487Z,15.73
2019-02-06T00:58:07.368Z,16.00
2019-02-06T01:00:36.388Z,16.03
2019-02-06T01:03:06.884Z,17.10
2019-02-06T01:05:38.442Z,16.33
2019-02-06T01:08:06.730Z,16.63
2019-02-06T01:10:35.519Z,16.43
2019-02-06T01:13:04.587Z,16.63
2019-02-06T01:15:33.458Z,16.57
2019-02-06T01:18:02.415Z,17.37
2019-02-06T01:20:31.209Z,16.13
2019-02-06T01:23:00.075Z,16.03
2019-02-06T01:25:28.986Z,16.70
2019-02-06T01:27:57.979Z,19.70
2019-02-06T01:30:27.702Z,17.10
2019-02-06T01:32:56.951Z,18.57
2019-02-06T01:35:26.075Z,18.30
2019-02-06T01:37:54.946Z,18.40
2019-02-06T01:40:23.824Z,20.20
2019-02-06T01:42:52.706Z,20.27
2019-02-06T01:45:21.821Z,22.10
2019-02-06T01:47:50.775Z,22.63
2019-02-06T01:50:19.911Z,21.07
2019-02-06T01:52:49.031Z,21.67
2019-02-06T01:55:17.915Z,21.37
2019-02-06T01:57:46.791Z,21.13
2019-02-06T02:00:20.829Z,22.37
2019-02-06T02:02:49.972Z,23.47
2019-02-06T02:05:20.143Z,21.03
2019-02-06T02:07:49.615Z,19.30
2019-02-06T02:10:19.383Z,18.17
2019-02-06T02:12:48.436Z,17.60
2019-02-06T02:15:17.819Z,19.77
2019-02-06T02:17:46.819Z,19.67
2019-02-06T02:20:20.313Z,18.80
2019-02-06T02:22:49.259Z,19.57
2019-02-06T02:25:18.407Z,16.97
2019-02-06T02:27:47.477Z,18.00
2019-02-06T02:30:20.188Z,17.43
2019-02-06T02:32:49.504Z,18.37
2019-02-06T02:35:18.486Z,18.07
2019-02-06T02:37:47.535Z,19.70
2019-02-06T02:40:16.546Z,27.00
2019-02-06T02:42:45.476Z,19.17
2019-02-06T02:45:15.528Z,18.63
2019-02-06T02:47:44.967Z,23.13
2019-02-06T02:50:14.056Z,22.73
2019-02-06T02:52:43.001Z,20.97
2019-02-06T02:55:12.651Z,20.57
2019-02-06T02:57:41.601Z,22.13
2019-02-06T03:00:14.462Z,24.60
2019-02-06T03:02:50.015Z,23.13
2019-02-06T03:05:24.682Z,24.03
2019-02-06T03:07:53.713Z,19.23
2019-02-06T03:10:22.642Z,19.67
2019-02-06T03:12:51.519Z,22.97
2019-02-06T03:15:20.795Z,17.67
2019-02-06T03:17:49.980Z,18.07
2019-02-06T03:20:18.841Z,16.40
2019-02-06T03:22:47.643Z,16.30
2019-02-06T03:25:16.680Z,17.90
2019-02-06T03:27:45.487Z,16.90
2019-02-06T03:30:15.593Z,17.23
2019-02-06T03:32:44.769Z,15.30
2019-02-06T03:35:13.729Z,17.07
2019-02-06T03:37:42.603Z,15.63
2019-02-06T03:40:12.091Z,16.67
2019-02-06T03:42:40.967Z,16.23
2019-02-06T03:45:10.619Z,14.97
2019-02-06T03:47:39.593Z,15.60
2019-02-06T03:50:11.305Z,14.93
2019-02-06T03:52:40.121Z,14.00
2019-02-06T03:55:09.584Z,13.23
2019-02-06T03:57:38.459Z,10.17
2019-02-06T04:00:10.019Z,10.93
2019-02-06T04:02:39.175Z,10.87
2019-02-06T04:05:08.980Z,10.60
2019-02-06T04:07:38.007Z,11.73
2019-02-06T04:10:07.939Z,12.37
2019-02-06T04:12:36.866Z,12.57
2019-02-06T04:15:06.999Z,12.20
2019-02-06T04:17:36.139Z,12.63
2019-02-06T04:20:05.952Z,12.47
2019-02-06T04:22:35.080Z,11.93
2019-02-06T04:25:04.399Z,11.70
2019-02-06T04:27:33.295Z,12.03
2019-02-06T04:30:02.290Z,11.70
2019-02-06T04:32:31.460Z,12.27
2019-02-06T04:35:00.331Z,13.13
2019-02-06T04:37:29.129Z,13.33
2019-02-06T04:39:58.183Z,13.47
2019-02-06T04:42:27.119Z,12.47
2019-02-06T04:44:55.987Z,13.13
2019-02-06T04:47:25.080Z,12.17
2019-02-06T04:49:53.930Z,12.20
2019-02-06T04:52:22.768Z,13.23
2019-02-06T04:54:52.120Z,12.40
2019-02-06T04:57:20.927Z,12.17
2019-02-06T04:59:49.715Z,11.93
2019-02-06T05:02:18.714Z,12.13
2019-02-06T05:04:47.871Z,20.43
2019-02-06T05:07:19.397Z,15.07
2019-02-06T05:09:47.464Z,14.13
2019-02-06T05:12:16.277Z,23.67
2019-02-06T05:14:45.120Z,14.30
2019-02-06T05:17:14.005Z,12.83
2019-02-06T05:19:43.387Z,12.70
2019-02-06T05:22:12.299Z,13.37
2019-02-06T05:24:41.102Z,13.00
2019-02-06T05:27:09.896Z,11.70
2019-02-06T05:29:38.713Z,12.13
2019-02-06T05:32:07.592Z,11.63
2019-02-06T05:34:36.988Z,11.60
2019-02-06T05:37:06.106Z,11.43
2019-02-06T05:39:34.983Z,11.80
2019-02-06T05:42:04.103Z,12.30
2019-02-06T05:44:32.932Z,12.63
2019-02-06T05:47:01.727Z,11.17
2019-02-06T05:49:30.600Z,11.57
2019-02-06T05:51:59.753Z,11.67
2019-02-06T05:54:28.556Z,11.93
2019-02-06T05:56:58.455Z,11.97
2019-02-06T05:59:27.254Z,14.70
2019-02-06T06:01:56.131Z,15.93
2019-02-06T06:04:25.201Z,16.60
2019-02-06T06:06:53.980Z,14.80
2019-02-06T06:09:22.779Z,15.70
2019-02-06T06:11:51.634Z,14.53
2019-02-06T06:14:20.436Z,13.57
2019-02-06T06:16:49.223Z,13.17
2019-02-06T06:19:18.023Z,11.97
2019-02-06T06:21:47.009Z,14.57
2019-02-06T06:24:16.245Z,13.43
2019-02-06T06:26:45.076Z,13.03
2019-02-06T06:29:14.202Z,13.60
2019-02-06T06:31:43.256Z,12.03
2019-02-06T06:34:12.333Z,13.67
2019-02-06T06:36:41.193Z,11.77
2019-02-06T06:39:10.400Z,12.77
2019-02-06T06:41:39.498Z,12.43
2019-02-06T06:44:08.350Z,12.53
2019-02-06T06:46:37.296Z,11.57
2019-02-06T06:49:06.414Z,12.63
2019-02-06T06:51:35.241Z,11.73
2019-02-06T06:54:04.731Z,12.27
2019-02-06T06:56:33.918Z,11.70
2019-02-06T06:59:02.718Z,12.73
2019-02-06T07:01:31.540Z,12.40
2019-02-06T07:04:00.327Z,10.33
2019-02-06T07:06:29.197Z,11.63
2019-02-06T07:08:58.052Z,12.80
2019-02-06T07:11:26.910Z,11.90
2019-02-06T07:13:55.706Z,13.53
2019-02-06T07:16:24.517Z,12.40
2019-02-06T07:18:53.383Z,12.50
2019-02-06T07:21:23.039Z,11.57
2019-02-06T07:23:51.850Z,12.73
2019-02-06T07:26:20.721Z,12.70
2019-02-06T07:28:49.514Z,13.30
2019-02-06T07:31:18.588Z,12.13
2019-02-06T07:33:47.523Z,11.83
2019-02-06T07:36:16.416Z,12.50
2019-02-06T07:38:45.449Z,13.17
2019-02-06T07:41:14.254Z,11.67
2019-02-06T07:43:43.561Z,11.73
2019-02-06T07:46:12.372Z,12.57
2019-02-06T07:48:41.160Z,11.37
2019-02-06T07:51:09.971Z,13.17
2019-02-06T07:53:38.930Z,11.73
2019-02-06T07:56:07.884Z,11.47
2019-02-06T07:58:36.788Z,13.03
2019-02-06T08:01:06.020Z,12.37
2019-02-06T08:03:34.916Z,12.20
2019-02-06T08:06:03.791Z,13.43
2019-02-06T08:08:36.252Z,14.03
2019-02-06T08:11:03.443Z,13.47
2019-02-06T08:13:32.228Z,13.77
2019-02-06T08:16:01.304Z,12.70
2019-02-06T08:18:30.106Z,12.90
2019-02-06T08:20:58.921Z,13.53
2019-02-06T08:23:27.723Z,13.10
2019-02-06T08:25:56.615Z,14.80
2019-02-06T08:28:25.497Z,14.90
2019-02-06T08:30:54.913Z,17.00
2019-02-06T08:33:23.737Z,16.30
2019-02-06T08:35:52.551Z,16.63
2019-02-06T08:38:21.435Z,16.57
2019-02-06T08:40:50.279Z,17.13
2019-02-06T08:43:19.203Z,19.47
2019-02-06T08:45:48.316Z,17.37
2019-02-06T08:48:17.227Z,18.77
2019-02-06T08:50:46.310Z,19.40
2019-02-06T08:53:15.106Z,18.50
2019-02-06T08:55:44.058Z,19.73
2019-02-06T08:58:12.984Z,20.97
2019-02-06T09:00:42.010Z,19.83
2019-02-06T09:03:11.704Z,19.07
2019-02-06T09:05:40.617Z,20.80
2019-02-06T09:08:09.905Z,13.93
2019-02-06T09:10:38.905Z,12.17
2019-02-06T09:13:08.080Z,12.63
2019-02-06T09:15:36.989Z,12.40
2019-02-06T09:18:06.559Z,10.47
2019-02-06T09:20:35.557Z,10.33
2019-02-06T09:23:04.594Z,7.83
2019-02-06T09:25:33.695Z,8.03
2019-02-06T09:28:02.608Z,8.30
2019-02-06T09:30:32.953Z,10.00
2019-02-06T09:33:02.161Z,8.87
2019-02-06T09:35:31.265Z,9.43
2019-02-06T09:38:00.124Z,8.90
2019-02-06T09:40:30.154Z,9.10
2019-02-06T09:42:59.161Z,8.03
2019-02-06T09:45:28.170Z,7.50
2019-02-06T09:47:57.188Z,7.93
2019-02-06T09:50:33.511Z,6.90
2019-02-06T09:53:02.529Z,7.27
2019-02-06T09:55:31.861Z,7.77
2019-02-06T09:58:01.429Z,7.67
2019-02-06T10:00:32.514Z,8.50
2019-02-06T10:03:01.888Z,10.50
2019-02-06T10:05:30.793Z,20.50
2019-02-06T10:07:59.929Z,10.97
2019-02-06T10:10:29.454Z,8.17
2019-02-06T10:12:58.440Z,8.37
2019-02-06T10:15:29.435Z,8.00
2019-02-06T10:17:59.257Z,8.27
2019-02-06T10:20:30.837Z,7.40
2019-02-06T10:22:59.809Z,7.20
2019-02-06T10:25:29.026Z,8.83
2019-02-06T10:27:58.020Z,9.30
2019-02-06T10:30:29.825Z,9.50
2019-02-06T10:32:59.197Z,9.90
2019-02-06T10:35:28.407Z,8.97
2019-02-06T10:37:57.405Z,9.00
2019-02-06T10:40:26.508Z,10.47
2019-02-06T10:42:55.451Z,8.63
2019-02-06T10:45:24.468Z,9.43
2019-02-06T10:47:54.420Z,9.53
2019-02-06T10:50:24.883Z,9.90
2019-02-06T10:52:53.785Z,9.80
2019-02-06T10:55:23.091Z,10.10
2019-02-06T10:57:52.030Z,10.23
2019-02-06T11:00:29.806Z,10.00
2019-02-06T11:02:58.375Z,9.83
2019-02-06T11:05:27.481Z,9.77
2019-02-06T11:07:56.481Z,9.53
2019-02-06T11:10:25.572Z,9.50
2019-02-06T11:12:54.565Z,9.73
2019-02-06T11:15:24.374Z,9.97
2019-02-06T11:17:53.903Z,9.87
2019-02-06T11:20:23.107Z,7.73
2019-02-06T11:22:52.078Z,8.60
2019-02-06T11:25:21.154Z,8.10
2019-02-06T11:27:50.076Z,8.37
2019-02-06T11:30:22.170Z,9.00
2019-02-06T11:32:51.728Z,8.03
2019-02-06T11:35:20.982Z,8.10
2019-02-06T11:37:50.432Z,8.73
2019-02-06T11:40:21.146Z,8.30
2019-02-06T11:42:50.260Z,7.70
2019-02-06T11:45:21.795Z,7.60
2019-02-06T11:47:50.862Z,8.17
2019-02-06T11:50:23.001Z,7.90
2019-02-06T11:52:52.014Z,7.53
2019-02-06T11:55:22.133Z,8.03
2019-02-06T11:57:51.128Z,8.13
2019-02-06T12:00:31.689Z,6.83
2019-02-06T12:03:01.049Z,7.90
2019-02-06T12:05:29.975Z,7.57
2019-02-06T12:07:58.873Z,7.83
2019-02-06T12:10:28.197Z,7.53
2019-02-06T12:12:57.211Z,7.30
2019-02-06T12:15:26.354Z,8.27
2019-02-06T12:17:55.212Z,7.37
2019-02-06T12:20:24.207Z,7.53
2019-02-06T12:22:53.199Z,7.60
2019-02-06T12:25:22.284Z,6.50
2019-02-06T12:27:51.269Z,6.90
2019-02-06T12:30:26.047Z,7.17
2019-02-06T12:32:55.300Z,7.10
2019-02-06T12:35:24.602Z,8.10
2019-02-06T12:37:53.613Z,7.83
2019-02-06T12:40:23.420Z,9.10
2019-02-06T12:42:52.500Z,6.80
2019-02-06T12:45:21.546Z,6.87
2019-02-06T12:47:51.056Z,10.70
2019-02-06T12:50:20.519Z,7.97
2019-02-06T12:52:49.603Z,8.33
2019-02-06T12:55:21.463Z,8.00
2019-02-06T12:57:50.403Z,6.80
2019-02-06T13:00:24.920Z,6.13
2019-02-06T13:02:57.518Z,5.80
2019-02-06T13:05:25.123Z,6.77
2019-02-06T13:07:54.200Z,6.60
2019-02-06T13:10:33.338Z,6.20
2019-02-06T13:12:54.360Z,6.10
2019-02-06T13:15:23.322Z,6.13
2019-02-06T13:17:52.709Z,6.20
2019-02-06T13:20:23.795Z,5.20
2019-02-06T13:22:53.057Z,6.27
2019-02-06T13:25:21.977Z,6.17
2019-02-06T13:27:51.049Z,5.60
2019-02-06T13:30:25.303Z,4.97
2019-02-06T13:32:54.505Z,5.40
2019-02-06T13:35:23.526Z,4.83
2019-02-06T13:37:52.728Z,5.37
2019-02-06T13:40:22.641Z,4.97
2019-02-06T13:42:51.647Z,4.87
2019-02-06T13:45:22.825Z,4.90
2019-02-06T13:47:52.433Z,4.73
2019-02-06T13:50:22.451Z,5.50
2019-02-06T13:52:51.513Z,5.63
2019-02-06T13:55:20.497Z,4.63
2019-02-06T13:57:49.991Z,5.10
2019-02-06T14:00:23.873Z,4.87
2019-02-06T14:02:53.276Z,5.60
2019-02-06T14:05:24.728Z,4.83
2019-02-06T14:07:55.442Z,4.93
2019-02-06T14:10:25.146Z,5.00
2019-02-06T14:12:54.467Z,5.37
2019-02-06T14:15:24.672Z,5.03
2019-02-06T14:17:53.658Z,5.03
2019-02-06T14:20:22.792Z,4.83
2019-02-06T14:22:55.032Z,5.20
2019-02-06T14:25:30.886Z,4.30
2019-02-06T14:28:20.992Z,4.53
2019-02-06T14:31:12.881Z,5.00
2019-02-06T14:34:06.151Z,4.73
2019-02-06T14:37:09.892Z,4.90
2019-02-06T14:40:04.605Z,4.93
2019-02-06T14:42:59.458Z,5.07
2019-02-06T14:46:08.248Z,5.23
2019-02-06T14:49:06.538Z,5.03
2019-02-06T14:52:19.385Z,5.10
2019-02-06T14:55:25.603Z,5.07
2019-02-06T14:58:16.631Z,4.73
2019-02-06T15:01:33.638Z,5.33
2019-02-06T15:04:43.850Z,5.57
2019-02-06T15:07:37.409Z,5.50
2019-02-06T15:10:43.173Z,5.33
2019-02-06T15:13:47.741Z,4.70
2019-02-06T15:17:02.109Z,4.90
2019-02-06T15:19:58.055Z,5.07
2019-02-06T15:23:33.068Z,4.20
2019-02-06T15:26:38.187Z,5.27
2019-02-06T15:29:30.421Z,4.80
2019-02-06T15:32:30.269Z,5.07
2019-02-06T15:35:40.752Z,4.97
2019-02-06T15:38:52.437Z,18.73
2019-02-06T15:42:05.720Z,22.50
2019-02-06T15:44:48.363Z,9.03
2019-02-06T15:47:53.252Z,21.80
2019-02-06T15:50:53.144Z,4.93
2019-02-06T15:53:54.598Z,5.23
2019-02-06T15:57:07.916Z,4.70
2019-02-06T15:59:53.739Z,4.83
2019-02-06T16:02:33.153Z,4.50
2019-02-06T16:05:23.136Z,4.77
2019-02-06T16:08:02.247Z,5.00
2019-02-06T16:11:21.475Z,4.63
2019-02-06T16:14:34.595Z,4.93
2019-02-06T16:17:50.667Z,5.13
2019-02-06T16:20:54.426Z,4.93
2019-02-06T16:23:54.810Z,5.37
2019-02-06T16:26:55.326Z,5.73
2019-02-06T16:30:08.384Z,4.57
2019-02-06T16:33:13.783Z,4.57
2019-02-06T16:36:10.886Z,5.50
2019-02-06T16:39:10.601Z,5.27
2019-02-06T16:42:10.016Z,5.57
2019-02-06T16:45:06.484Z,4.73
2019-02-06T16:47:49.335Z,5.43
2019-02-06T16:50:57.068Z,6.67
2019-02-06T16:54:01.794Z,6.33
2019-02-06T16:56:57.163Z,6.00
2019-02-06T17:00:02.591Z,5.73
2019-02-06T17:03:09.548Z,6.77
2019-02-06T17:06:18.799Z,7.27
2019-02-06T17:09:59.203Z,23.07
2019-02-06T17:12:53.024Z,10.63
2019-02-06T17:15:49.083Z,26.00
2019-02-06T17:19:10.971Z,8.23
2019-02-06T17:22:22.183Z,7.30
2019-02-06T17:25:22.639Z,7.93
2019-02-06T17:28:01.895Z,8.10
2019-02-06T17:31:15.218Z,9.30
2019-02-06T17:34:22.082Z,8.80
2019-02-06T17:37:23.087Z,7.90
2019-02-06T17:40:27.209Z,8.90
2019-02-06T17:43:03.998Z,8.33
2019-02-06T17:45:50.958Z,9.53
2019-02-06T17:48:41.307Z,8.30
2019-02-06T17:51:36.239Z,8.90
2019-02-06T17:54:59.559Z,8.93
2019-02-06T17:57:27.903Z,10.00
2019-02-06T17:59:57.075Z,9.03
2019-02-06T18:02:25.900Z,9.80
2019-02-06T18:04:54.708Z,11.87
2019-02-06T18:07:23.659Z,10.10
2019-02-06T18:09:52.754Z,9.43
2019-02-06T18:12:26.266Z,9.47
2019-02-06T18:14:52.280Z,9.07
2019-02-06T18:17:21.095Z,9.07
2019-02-06T18:19:49.900Z,10.73
2019-02-06T18:22:18.779Z,10.83
2019-02-06T18:24:47.559Z,12.43
2019-02-06T18:27:16.622Z,11.97
2019-02-06T18:29:45.500Z,15.70
2019-02-06T18:32:14.334Z,21.00
2019-02-06T18:34:43.446Z,20.77
2019-02-06T18:37:12.516Z,20.37
2019-02-06T18:39:41.377Z,20.83
2019-02-06T18:42:10.327Z,20.37
2019-02-06T18:44:39.128Z,20.03
2019-02-06T18:47:07.959Z,21.77
2019-02-06T18:49:36.826Z,23.30
2019-02-06T18:52:06.555Z,24.37
2019-02-06T18:54:35.409Z,25.73
2019-02-06T18:57:04.442Z,24.83
2019-02-06T18:59:33.379Z,33.47
2019-02-06T19:02:02.263Z,49.50
2019-02-06T19:04:31.271Z,49.23
2019-02-06T19:07:00.245Z,34.07
2019-02-06T19:09:29.210Z,23.30
2019-02-06T19:11:58.523Z,22.97
2019-02-06T19:14:27.447Z,24.77
2019-02-06T19:16:56.320Z,26.13
2019-02-06T19:19:25.837Z,34.70
2019-02-06T19:22:37.782Z,30.23
2019-02-06T19:25:07.141Z,17.93
2019-02-06T19:27:36.168Z,25.70
2019-02-06T19:30:09.413Z,25.97
2019-02-06T19:32:38.202Z,26.03
2019-02-06T19:35:07.942Z,27.97
2019-02-06T19:37:36.828Z,25.30
2019-02-06T19:40:06.339Z,21.83
2019-02-06T19:42:35.228Z,22.23
2019-02-06T19:45:04.568Z,21.50
2019-02-06T19:47:33.638Z,19.57
2019-02-06T19:50:02.575Z,18.17
2019-02-06T19:52:31.426Z,17.90
2019-02-06T19:55:00.522Z,17.60
2019-02-06T19:57:29.390Z,17.13
2019-02-06T19:59:58.230Z,16.00
2019-02-06T20:02:27.261Z,17.63
2019-02-06T20:04:56.318Z,14.73
2019-02-06T20:07:25.511Z,14.97
2019-02-06T20:09:54.326Z,15.73
2019-02-06T20:12:23.465Z,14.70
2019-02-06T20:14:52.235Z,14.03
2019-02-06T20:17:21.069Z,12.77
2019-02-06T20:19:50.121Z,13.47
2019-02-06T20:22:19.216Z,13.37
2019-02-06T20:24:47.997Z,13.70
2019-02-06T20:27:16.768Z,14.03
2019-02-06T20:29:45.950Z,13.33
2019-02-06T20:32:14.716Z,14.70
2019-02-06T20:34:43.508Z,14.47
2019-02-06T20:37:12.429Z,13.27
2019-02-06T20:39:41.215Z,15.27
2019-02-06T20:42:10.056Z,14.80
2019-02-06T20:44:38.923Z,17.27
2019-02-06T20:47:07.769Z,31.27
2019-02-06T20:49:36.581Z,73.93
2019-02-06T20:52:05.537Z,25.97
2019-02-06T20:54:34.328Z,27.73
2019-02-06T20:57:12.367Z,19.43
2019-02-06T20:59:33.698Z,18.50
2019-02-06T21:02:02.465Z,19.30
2019-02-06T21:04:31.951Z,16.77
2019-02-06T21:07:00.696Z,16.37
2019-02-06T21:09:29.490Z,16.70
2019-02-06T21:11:58.261Z,15.60
2019-02-06T21:14:27.050Z,11.93
2019-02-06T21:16:55.925Z,12.10
2019-02-06T21:19:24.709Z,13.80
2019-02-06T21:21:53.830Z,12.90
2019-02-06T21:24:22.885Z,13.90
2019-02-06T21:26:51.679Z,13.30
2019-02-06T21:29:20.483Z,13.87
2019-02-06T21:31:49.513Z,14.07
2019-02-06T21:34:18.556Z,14.10
2019-02-06T21:36:47.768Z,13.60
2019-02-06T21:39:16.882Z,13.23
2019-02-06T21:41:45.961Z,13.23
2019-02-06T21:44:14.746Z,12.50
2019-02-06T21:46:43.597Z,12.10
2019-02-06T21:49:12.481Z,13.13
2019-02-06T21:51:41.263Z,13.07
2019-02-06T21:54:10.221Z,15.20
2019-02-06T21:56:39.001Z,14.37
2019-02-06T21:59:07.777Z,14.57
2019-02-06T22:01:36.911Z,13.20
2019-02-06T22:04:05.838Z,14.60
2019-02-06T22:06:34.625Z,12.57
2019-02-06T22:09:04.822Z,15.70
2019-02-06T22:11:33.702Z,15.83
2019-02-06T22:14:02.552Z,17.67
2019-02-06T22:16:31.409Z,16.63
2019-02-06T22:19:00.187Z,16.40
2019-02-06T22:21:29.053Z,16.00
2019-02-06T22:23:57.909Z,13.80
2019-02-06T22:26:26.733Z,15.17
2019-02-06T22:28:55.584Z,16.00
2019-02-06T22:31:24.533Z,15.00
2019-02-06T22:33:53.389Z,15.40
2019-02-06T22:36:22.233Z,16.13
2019-02-06T22:38:51.296Z,15.67
2019-02-06T22:41:20.161Z,15.63
2019-02-06T22:43:49.005Z,16.43
2019-02-06T22:46:17.797Z,18.13
2019-02-06T22:48:46.595Z,21.97
2019-02-06T22:51:16.449Z,21.67
2019-02-06T22:53:45.559Z,26.37
2019-02-06T22:56:14.365Z,22.30
2019-02-06T22:58:43.214Z,20.10
2019-02-06T23:01:28.425Z,19.87
2019-02-06T23:03:57.379Z,16.43
2019-02-06T23:06:26.523Z,17.03
2019-02-06T23:08:55.329Z,15.77
2019-02-06T23:11:24.295Z,15.63
2019-02-06T23:13:53.070Z,15.60
2019-02-06T23:16:22.035Z,17.20
2019-02-06T23:18:52.181Z,17.33
2019-02-06T23:21:21.589Z,16.07
2019-02-06T23:23:50.393Z,15.17
2019-02-06T23:26:19.361Z,15.17
2019-02-06T23:28:48.325Z,15.53
2019-02-06T23:31:17.157Z,14.23
2019-02-06T23:33:45.973Z,15.40
2019-02-06T23:36:15.523Z,14.53
2019-02-06T23:38:44.492Z,15.80
2019-02-06T23:41:13.557Z,14.40
2019-02-06T23:43:42.450Z,15.07
2019-02-06T23:46:11.621Z,14.27
2019-02-06T23:48:40.932Z,13.20
2019-02-06T23:51:10.640Z,13.77
2019-02-06T23:53:39.510Z,14.97
2019-02-06T23:56:08.360Z,13.97
2019-02-06T23:58:37.314Z,14.43
